sensor_id;sensor_type;location;lat;lon;timestamp;temperature;humidity
10070;DHT22;5074;53.720;10.014;2022-08-19T00:01:24;19.10;99.90
10070;DHT22;5074;53.720;10.014;2022-08-19T00:03:56;19.10;99.90
10070;DHT22;5074;53.720;10.014;2022-08-19T00:06:24;19.10;99.90
10070;DHT22;5074;53.720;10.014;2022-08-19T00:08:52;19.10;99.90
10070;DHT22;5074;53.720;10.014;2022-08-19T00:11:23;19.10;99.90
10070;DHT22;5074;53.720;10.014;2022-08-19T00:13:51;19.20;99.90
10070;DHT22;5074;53.720;10.014;2022-08-19T00:16:22;19.20;99.90
10070;DHT22;5074;53.720;10.014;2022-08-19T00:18:52;19.10;99.90
10070;DHT22;5074;53.720;10.014;2022-08-19T00:21:22;19.10;99.90
10070;DHT22;5074;53.720;10.014;2022-08-19T00:23:50;19.10;99.90
10070;DHT22;5074;53.720;10.014;2022-08-19T00:26:19;19.10;99.90
10070;DHT22;5074;53.720;10.014;2022-08-19T00:28:49;19.10;99.90
10070;DHT22;5074;53.720;10.014;2022-08-19T00:31:17;18.90;99.90
10070;DHT22;5074;53.720;10.014;2022-08-19T00:33:45;18.90;99.90
10070;DHT22;5074;53.720;10.014;2022-08-19T00:36:14;19.00;99.90
10070;DHT22;5074;53.720;10.014;2022-08-19T00:38:42;19.00;99.90
10070;DHT22;5074;53.720;10.014;2022-08-19T00:41:12;19.00;99.90
10070;DHT22;5074;53.720;10.014;2022-08-19T00:43:42;18.90;99.90
10070;DHT22;5074;53.720;10.014;2022-08-19T00:46:12;18.90;99.90
10070;DHT22;5074;53.720;10.014;2022-08-19T00:48:40;18.80;99.90
10070;DHT22;5074;53.720;10.014;2022-08-19T00:51:08;18.90;99.90
10070;DHT22;5074;53.720;10.014;2022-08-19T00:53:37;18.80;99.90
10070;DHT22;5074;53.720;10.014;2022-08-19T00:56:06;18.80;99.90
10070;DHT22;5074;53.720;10.014;2022-08-19T00:58:35;18.80;99.90
10070;DHT22;5074;53.720;10.014;2022-08-19T01:01:04;18.80;99.90
10070;DHT22;5074;53.720;10.014;2022-08-19T01:03:35;18.80;99.90
10070;DHT22;5074;53.720;10.014;2022-08-19T01:06:23;18.80;99.90
10070;DHT22;5074;53.720;10.014;2022-08-19T01:08:53;18.70;99.90
10070;DHT22;5074;53.720;10.014;2022-08-19T01:11:21;18.70;99.90
10070;DHT22;5074;53.720;10.014;2022-08-19T01:13:50;18.60;99.90
10070;DHT22;5074;53.720;10.014;2022-08-19T01:16:21;18.60;99.90
10070;DHT22;5074;53.720;10.014;2022-08-19T01:18:53;18.60;99.90
10070;DHT22;5074;53.720;10.014;2022-08-19T01:21:22;18.60;99.90
10070;DHT22;5074;53.720;10.014;2022-08-19T01:23:59;18.60;99.90
10070;DHT22;5074;53.720;10.014;2022-08-19T01:26:27;18.50;99.90
10070;DHT22;5074;53.720;10.014;2022-08-19T01:28:58;18.50;99.90
10070;DHT22;5074;53.720;10.014;2022-08-19T01:31:28;18.50;99.90
10070;DHT22;5074;53.720;10.014;2022-08-19T01:33:59;18.50;99.90
10070;DHT22;5074;53.720;10.014;2022-08-19T01:36:31;18.50;99.90
10070;DHT22;5074;53.720;10.014;2022-08-19T01:39:04;18.50;99.90
10070;DHT22;5074;53.720;10.014;2022-08-19T01:41:33;18.50;99.90
10070;DHT22;5074;53.720;10.014;2022-08-19T01:44:02;18.50;99.90
10070;DHT22;5074;53.720;10.014;2022-08-19T01:46:45;18.50;99.90
10070;DHT22;5074;53.720;10.014;2022-08-19T01:49:15;18.50;99.90
10070;DHT22;5074;53.720;10.014;2022-08-19T01:51:46;18.50;99.90
10070;DHT22;5074;53.720;10.014;2022-08-19T01:54:16;18.50;99.90
10070;DHT22;5074;53.720;10.014;2022-08-19T01:56:54;18.50;99.90
10070;DHT22;5074;53.720;10.014;2022-08-19T01:59:25;18.40;99.90
10070;DHT22;5074;53.720;10.014;2022-08-19T02:01:53;18.40;99.90
10070;DHT22;5074;53.720;10.014;2022-08-19T02:04:21;18.30;99.90
10070;DHT22;5074;53.720;10.014;2022-08-19T02:06:51;18.30;99.90
10070;DHT22;5074;53.720;10.014;2022-08-19T02:09:21;18.20;99.90
10070;DHT22;5074;53.720;10.014;2022-08-19T02:11:49;18.20;99.90
10070;DHT22;5074;53.720;10.014;2022-08-19T02:14:17;18.10;99.90
10070;DHT22;5074;53.720;10.014;2022-08-19T02:16:45;18.20;99.90
10070;DHT22;5074;53.720;10.014;2022-08-19T02:19:13;18.10;99.90
10070;DHT22;5074;53.720;10.014;2022-08-19T02:21:41;18.10;99.90
10070;DHT22;5074;53.720;10.014;2022-08-19T02:24:10;18.10;99.90
10070;DHT22;5074;53.720;10.014;2022-08-19T02:26:40;18.10;99.90
10070;DHT22;5074;53.720;10.014;2022-08-19T02:29:08;18.00;99.90
10070;DHT22;5074;53.720;10.014;2022-08-19T02:31:36;18.00;99.90
10070;DHT22;5074;53.720;10.014;2022-08-19T02:34:04;18.00;99.90
10070;DHT22;5074;53.720;10.014;2022-08-19T02:36:32;18.00;99.90
10070;DHT22;5074;53.720;10.014;2022-08-19T02:39:00;18.00;99.90
10070;DHT22;5074;53.720;10.014;2022-08-19T02:41:28;17.90;99.90
10070;DHT22;5074;53.720;10.014;2022-08-19T02:43:59;17.90;99.90
10070;DHT22;5074;53.720;10.014;2022-08-19T02:46:50;17.90;99.90
10070;DHT22;5074;53.720;10.014;2022-08-19T02:49:18;17.90;99.90
10070;DHT22;5074;53.720;10.014;2022-08-19T02:51:47;18.00;99.90
10070;DHT22;5074;53.720;10.014;2022-08-19T02:54:15;18.00;99.90
10070;DHT22;5074;53.720;10.014;2022-08-19T02:56:43;18.00;99.90
10070;DHT22;5074;53.720;10.014;2022-08-19T02:59:14;18.00;99.90
10070;DHT22;5074;53.720;10.014;2022-08-19T03:01:42;18.00;99.90
10070;DHT22;5074;53.720;10.014;2022-08-19T03:04:10;18.00;99.90
10070;DHT22;5074;53.720;10.014;2022-08-19T03:06:41;18.00;99.90
10070;DHT22;5074;53.720;10.014;2022-08-19T03:09:12;18.00;99.90
10070;DHT22;5074;53.720;10.014;2022-08-19T03:11:40;18.00;99.90
10070;DHT22;5074;53.720;10.014;2022-08-19T03:14:09;18.00;99.90
10070;DHT22;5074;53.720;10.014;2022-08-19T03:16:42;18.00;99.90
10070;DHT22;5074;53.720;10.014;2022-08-19T03:19:11;18.00;99.90
10070;DHT22;5074;53.720;10.014;2022-08-19T03:21:42;18.00;99.90
10070;DHT22;5074;53.720;10.014;2022-08-19T03:24:12;18.00;99.90
10070;DHT22;5074;53.720;10.014;2022-08-19T03:26:42;18.00;99.90
10070;DHT22;5074;53.720;10.014;2022-08-19T03:29:12;18.00;99.90
10070;DHT22;5074;53.720;10.014;2022-08-19T03:31:52;18.00;99.90
10070;DHT22;5074;53.720;10.014;2022-08-19T03:34:22;18.00;99.90
10070;DHT22;5074;53.720;10.014;2022-08-19T03:36:52;18.00;99.90
10070;DHT22;5074;53.720;10.014;2022-08-19T03:39:22;18.00;99.90
10070;DHT22;5074;53.720;10.014;2022-08-19T03:41:51;18.00;99.90
10070;DHT22;5074;53.720;10.014;2022-08-19T03:44:43;18.00;99.90
10070;DHT22;5074;53.720;10.014;2022-08-19T03:47:13;17.90;99.90
10070;DHT22;5074;53.720;10.014;2022-08-19T03:49:43;18.00;99.90
10070;DHT22;5074;53.720;10.014;2022-08-19T03:52:12;18.00;99.90
10070;DHT22;5074;53.720;10.014;2022-08-19T03:54:40;18.00;99.90
10070;DHT22;5074;53.720;10.014;2022-08-19T03:57:08;18.00;99.90
10070;DHT22;5074;53.720;10.014;2022-08-19T03:59:37;18.00;99.90
10070;DHT22;5074;53.720;10.014;2022-08-19T04:02:08;18.00;99.90
10070;DHT22;5074;53.720;10.014;2022-08-19T04:04:39;18.00;99.90
10070;DHT22;5074;53.720;10.014;2022-08-19T04:07:09;18.00;99.90
10070;DHT22;5074;53.720;10.014;2022-08-19T04:09:39;18.10;99.90
10070;DHT22;5074;53.720;10.014;2022-08-19T04:12:07;18.10;99.90
10070;DHT22;5074;53.720;10.014;2022-08-19T04:14:36;18.00;99.90
10070;DHT22;5074;53.720;10.014;2022-08-19T04:17:04;18.10;99.90
10070;DHT22;5074;53.720;10.014;2022-08-19T04:19:33;18.10;99.90
10070;DHT22;5074;53.720;10.014;2022-08-19T04:22:03;18.10;99.90
10070;DHT22;5074;53.720;10.014;2022-08-19T04:24:33;18.10;99.90
10070;DHT22;5074;53.720;10.014;2022-08-19T04:27:02;18.10;99.90
10070;DHT22;5074;53.720;10.014;2022-08-19T04:29:32;18.10;99.90
10070;DHT22;5074;53.720;10.014;2022-08-19T04:32:02;18.10;99.90
10070;DHT22;5074;53.720;10.014;2022-08-19T04:34:35;18.10;99.90
10070;DHT22;5074;53.720;10.014;2022-08-19T04:37:26;18.10;99.90
10070;DHT22;5074;53.720;10.014;2022-08-19T04:40:02;18.20;99.90
10070;DHT22;5074;53.720;10.014;2022-08-19T04:42:49;18.20;99.90
10070;DHT22;5074;53.720;10.014;2022-08-19T04:45:18;18.20;99.90
10070;DHT22;5074;53.720;10.014;2022-08-19T04:47:48;18.20;99.90
10070;DHT22;5074;53.720;10.014;2022-08-19T04:50:39;18.20;99.90
10070;DHT22;5074;53.720;10.014;2022-08-19T04:53:09;18.20;99.90
10070;DHT22;5074;53.720;10.014;2022-08-19T04:55:38;18.20;99.90
10070;DHT22;5074;53.720;10.014;2022-08-19T04:58:08;18.20;99.90
10070;DHT22;5074;53.720;10.014;2022-08-19T05:00:37;18.20;99.90
10070;DHT22;5074;53.720;10.014;2022-08-19T05:03:07;18.30;99.90
10070;DHT22;5074;53.720;10.014;2022-08-19T05:05:37;18.30;99.90
10070;DHT22;5074;53.720;10.014;2022-08-19T05:08:12;18.30;99.90
10070;DHT22;5074;53.720;10.014;2022-08-19T05:10:57;18.20;99.90
10070;DHT22;5074;53.720;10.014;2022-08-19T05:13:25;18.20;99.90
10070;DHT22;5074;53.720;10.014;2022-08-19T05:15:54;18.20;99.90
10070;DHT22;5074;53.720;10.014;2022-08-19T05:18:25;18.20;99.90
10070;DHT22;5074;53.720;10.014;2022-08-19T05:21:11;18.20;99.90
10070;DHT22;5074;53.720;10.014;2022-08-19T05:23:59;18.20;99.90
10070;DHT22;5074;53.720;10.014;2022-08-19T05:26:28;18.10;99.90
10070;DHT22;5074;53.720;10.014;2022-08-19T05:28:56;18.10;99.90
10070;DHT22;5074;53.720;10.014;2022-08-19T05:31:26;18.00;99.90
10070;DHT22;5074;53.720;10.014;2022-08-19T05:33:54;18.10;99.90
10070;DHT22;5074;53.720;10.014;2022-08-19T05:36:22;18.00;99.90
10070;DHT22;5074;53.720;10.014;2022-08-19T05:38:50;18.00;99.90
10070;DHT22;5074;53.720;10.014;2022-08-19T05:41:21;18.10;99.90
10070;DHT22;5074;53.720;10.014;2022-08-19T05:43:57;18.10;99.90
10070;DHT22;5074;53.720;10.014;2022-08-19T05:46:26;18.10;99.90
10070;DHT22;5074;53.720;10.014;2022-08-19T05:48:54;18.00;99.90
10070;DHT22;5074;53.720;10.014;2022-08-19T05:51:25;18.10;99.90
10070;DHT22;5074;53.720;10.014;2022-08-19T05:53:54;18.10;99.90
10070;DHT22;5074;53.720;10.014;2022-08-19T05:56:24;18.10;99.90
10070;DHT22;5074;53.720;10.014;2022-08-19T05:58:52;18.10;99.90
10070;DHT22;5074;53.720;10.014;2022-08-19T06:01:20;18.00;99.90
10070;DHT22;5074;53.720;10.014;2022-08-19T06:03:48;18.00;99.90
10070;DHT22;5074;53.720;10.014;2022-08-19T06:06:17;18.00;99.90
10070;DHT22;5074;53.720;10.014;2022-08-19T06:08:46;18.00;99.90
10070;DHT22;5074;53.720;10.014;2022-08-19T06:11:18;17.90;99.90
10070;DHT22;5074;53.720;10.014;2022-08-19T06:13:50;17.90;99.90
10070;DHT22;5074;53.720;10.014;2022-08-19T06:16:25;18.00;99.90
10070;DHT22;5074;53.720;10.014;2022-08-19T06:18:55;18.00;99.90
10070;DHT22;5074;53.720;10.014;2022-08-19T06:21:25;18.00;99.90
10070;DHT22;5074;53.720;10.014;2022-08-19T06:23:55;18.00;99.90
10070;DHT22;5074;53.720;10.014;2022-08-19T06:26:24;18.00;99.90
10070;DHT22;5074;53.720;10.014;2022-08-19T06:28:55;18.00;99.90
10070;DHT22;5074;53.720;10.014;2022-08-19T06:31:25;18.00;99.90
10070;DHT22;5074;53.720;10.014;2022-08-19T06:33:54;18.00;99.90
10070;DHT22;5074;53.720;10.014;2022-08-19T06:36:23;18.10;99.90
10070;DHT22;5074;53.720;10.014;2022-08-19T06:38:58;18.10;99.90
10070;DHT22;5074;53.720;10.014;2022-08-19T06:41:26;18.10;99.90
10070;DHT22;5074;53.720;10.014;2022-08-19T06:43:57;18.20;99.90
10070;DHT22;5074;53.720;10.014;2022-08-19T06:46:25;18.20;99.90
10070;DHT22;5074;53.720;10.014;2022-08-19T06:48:54;18.30;99.90
10070;DHT22;5074;53.720;10.014;2022-08-19T06:51:22;18.30;99.90
10070;DHT22;5074;53.720;10.014;2022-08-19T06:53:57;18.40;99.90
10070;DHT22;5074;53.720;10.014;2022-08-19T06:56:26;18.40;99.90
10070;DHT22;5074;53.720;10.014;2022-08-19T06:59:01;18.40;99.90
10070;DHT22;5074;53.720;10.014;2022-08-19T07:01:33;18.30;99.90
10070;DHT22;5074;53.720;10.014;2022-08-19T07:04:04;18.30;99.90
10070;DHT22;5074;53.720;10.014;2022-08-19T07:06:37;18.40;99.90
10070;DHT22;5074;53.720;10.014;2022-08-19T07:09:10;18.30;99.90
10070;DHT22;5074;53.720;10.014;2022-08-19T07:11:44;18.30;99.90
10070;DHT22;5074;53.720;10.014;2022-08-19T07:14:16;18.30;99.90
10070;DHT22;5074;53.720;10.014;2022-08-19T07:16:46;18.30;99.90
10070;DHT22;5074;53.720;10.014;2022-08-19T07:19:16;18.30;99.90
10070;DHT22;5074;53.720;10.014;2022-08-19T07:21:45;18.20;99.90
10070;DHT22;5074;53.720;10.014;2022-08-19T07:24:14;18.20;99.90
10070;DHT22;5074;53.720;10.014;2022-08-19T07:26:42;18.20;99.90
10070;DHT22;5074;53.720;10.014;2022-08-19T07:29:11;18.20;99.90
10070;DHT22;5074;53.720;10.014;2022-08-19T07:31:41;18.20;99.90
10070;DHT22;5074;53.720;10.014;2022-08-19T07:34:10;18.20;99.90
10070;DHT22;5074;53.720;10.014;2022-08-19T07:36:40;18.20;99.90
10070;DHT22;5074;53.720;10.014;2022-08-19T07:39:11;18.30;99.90
10070;DHT22;5074;53.720;10.014;2022-08-19T07:41:40;18.30;99.90
10070;DHT22;5074;53.720;10.014;2022-08-19T07:44:08;18.30;99.90
10070;DHT22;5074;53.720;10.014;2022-08-19T07:46:39;18.40;99.90
10070;DHT22;5074;53.720;10.014;2022-08-19T07:49:16;18.40;99.90
10070;DHT22;5074;53.720;10.014;2022-08-19T07:51:46;18.40;99.90
10070;DHT22;5074;53.720;10.014;2022-08-19T07:54:15;18.50;99.90
10070;DHT22;5074;53.720;10.014;2022-08-19T07:56:44;18.50;99.90
10070;DHT22;5074;53.720;10.014;2022-08-19T07:59:13;18.50;99.90
10070;DHT22;5074;53.720;10.014;2022-08-19T08:01:42;18.50;99.90
10070;DHT22;5074;53.720;10.014;2022-08-19T08:04:11;18.50;99.90
10070;DHT22;5074;53.720;10.014;2022-08-19T08:06:57;18.50;99.90
10070;DHT22;5074;53.720;10.014;2022-08-19T08:09:43;18.50;99.90
10070;DHT22;5074;53.720;10.014;2022-08-19T08:12:16;18.60;99.90
10070;DHT22;5074;53.720;10.014;2022-08-19T08:15:02;18.60;99.90
10070;DHT22;5074;53.720;10.014;2022-08-19T08:17:39;18.50;99.90
10070;DHT22;5074;53.720;10.014;2022-08-19T08:20:17;18.60;99.90
10070;DHT22;5074;53.720;10.014;2022-08-19T08:22:47;18.50;99.90
10070;DHT22;5074;53.720;10.014;2022-08-19T08:25:33;18.50;99.90
10070;DHT22;5074;53.720;10.014;2022-08-19T08:28:03;18.50;99.90
10070;DHT22;5074;53.720;10.014;2022-08-19T08:30:36;18.50;99.90
10070;DHT22;5074;53.720;10.014;2022-08-19T08:33:12;18.60;99.90
10070;DHT22;5074;53.720;10.014;2022-08-19T08:35:45;18.70;99.90
10070;DHT22;5074;53.720;10.014;2022-08-19T08:38:13;18.70;99.90
10070;DHT22;5074;53.720;10.014;2022-08-19T08:40:43;18.80;99.90
10070;DHT22;5074;53.720;10.014;2022-08-19T08:43:20;18.80;99.90
10070;DHT22;5074;53.720;10.014;2022-08-19T08:45:59;18.80;99.90
10070;DHT22;5074;53.720;10.014;2022-08-19T08:48:32;18.90;99.90
10070;DHT22;5074;53.720;10.014;2022-08-19T08:51:07;18.90;99.90
10070;DHT22;5074;53.720;10.014;2022-08-19T08:53:38;19.00;99.90
10070;DHT22;5074;53.720;10.014;2022-08-19T08:56:09;19.00;99.90
10070;DHT22;5074;53.720;10.014;2022-08-19T08:58:47;19.10;99.90
10070;DHT22;5074;53.720;10.014;2022-08-19T09:01:22;19.10;99.90
10070;DHT22;5074;53.720;10.014;2022-08-19T09:03:57;19.00;99.90
10070;DHT22;5074;53.720;10.014;2022-08-19T09:06:29;19.00;99.90
10070;DHT22;5074;53.720;10.014;2022-08-19T09:09:10;19.10;99.90
10070;DHT22;5074;53.720;10.014;2022-08-19T09:11:47;19.20;99.90
10070;DHT22;5074;53.720;10.014;2022-08-19T09:14:32;19.20;99.90
10070;DHT22;5074;53.720;10.014;2022-08-19T09:17:21;19.20;99.90
10070;DHT22;5074;53.720;10.014;2022-08-19T09:19:56;19.20;99.90
10070;DHT22;5074;53.720;10.014;2022-08-19T09:22:35;19.20;99.90
10070;DHT22;5074;53.720;10.014;2022-08-19T09:25:04;19.20;99.90
10070;DHT22;5074;53.720;10.014;2022-08-19T09:27:35;19.20;99.90
10070;DHT22;5074;53.720;10.014;2022-08-19T09:30:13;19.30;99.90
10070;DHT22;5074;53.720;10.014;2022-08-19T09:32:43;19.30;99.90
10070;DHT22;5074;53.720;10.014;2022-08-19T09:35:13;19.40;99.90
10070;DHT22;5074;53.720;10.014;2022-08-19T09:37:42;19.50;99.90
10070;DHT22;5074;53.720;10.014;2022-08-19T09:40:11;19.60;99.90
10070;DHT22;5074;53.720;10.014;2022-08-19T09:42:41;19.70;99.90
10070;DHT22;5074;53.720;10.014;2022-08-19T09:45:16;19.60;99.90
10070;DHT22;5074;53.720;10.014;2022-08-19T09:47:48;19.60;99.90
10070;DHT22;5074;53.720;10.014;2022-08-19T09:50:21;19.50;99.90
10070;DHT22;5074;53.720;10.014;2022-08-19T09:52:50;19.50;99.90
10070;DHT22;5074;53.720;10.014;2022-08-19T09:55:24;19.50;99.90
10070;DHT22;5074;53.720;10.014;2022-08-19T09:57:59;19.50;99.90
10070;DHT22;5074;53.720;10.014;2022-08-19T10:00:28;19.60;99.90
10070;DHT22;5074;53.720;10.014;2022-08-19T10:02:57;19.80;99.90
10070;DHT22;5074;53.720;10.014;2022-08-19T10:05:27;19.90;99.90
10070;DHT22;5074;53.720;10.014;2022-08-19T10:08:15;19.90;99.90
10070;DHT22;5074;53.720;10.014;2022-08-19T10:10:46;20.00;99.90
10070;DHT22;5074;53.720;10.014;2022-08-19T10:13:16;20.10;99.90
10070;DHT22;5074;53.720;10.014;2022-08-19T10:15:48;20.20;99.90
10070;DHT22;5074;53.720;10.014;2022-08-19T10:18:18;20.30;99.90
10070;DHT22;5074;53.720;10.014;2022-08-19T10:20:49;20.40;99.90
10070;DHT22;5074;53.720;10.014;2022-08-19T10:23:19;20.60;99.90
10070;DHT22;5074;53.720;10.014;2022-08-19T10:25:48;20.60;99.90
10070;DHT22;5074;53.720;10.014;2022-08-19T10:28:20;20.60;99.90
10070;DHT22;5074;53.720;10.014;2022-08-19T10:30:49;20.30;99.90
10070;DHT22;5074;53.720;10.014;2022-08-19T10:33:17;20.30;99.90
10070;DHT22;5074;53.720;10.014;2022-08-19T10:36:08;20.30;99.90
10070;DHT22;5074;53.720;10.014;2022-08-19T10:38:37;20.20;99.90
10070;DHT22;5074;53.720;10.014;2022-08-19T10:41:20;20.20;99.90
10070;DHT22;5074;53.720;10.014;2022-08-19T10:43:51;20.10;99.90
10070;DHT22;5074;53.720;10.014;2022-08-19T10:46:21;20.10;99.90
10070;DHT22;5074;53.720;10.014;2022-08-19T10:48:51;20.10;99.90
10070;DHT22;5074;53.720;10.014;2022-08-19T10:51:21;20.10;99.90
10070;DHT22;5074;53.720;10.014;2022-08-19T10:54:14;20.10;99.90
10070;DHT22;5074;53.720;10.014;2022-08-19T10:56:56;20.00;99.90
10070;DHT22;5074;53.720;10.014;2022-08-19T10:59:24;19.90;99.90
10070;DHT22;5074;53.720;10.014;2022-08-19T11:02:02;19.90;99.90
10070;DHT22;5074;53.720;10.014;2022-08-19T11:04:33;19.90;99.90
10070;DHT22;5074;53.720;10.014;2022-08-19T11:07:02;19.90;99.90
10070;DHT22;5074;53.720;10.014;2022-08-19T11:09:31;19.90;99.90
10070;DHT22;5074;53.720;10.014;2022-08-19T11:12:06;19.90;99.90
10070;DHT22;5074;53.720;10.014;2022-08-19T11:14:35;20.10;99.90
10070;DHT22;5074;53.720;10.014;2022-08-19T11:17:04;20.30;99.90
10070;DHT22;5074;53.720;10.014;2022-08-19T11:19:33;20.50;99.90
10070;DHT22;5074;53.720;10.014;2022-08-19T11:22:03;20.80;99.90
10070;DHT22;5074;53.720;10.014;2022-08-19T11:24:34;21.10;99.90
10070;DHT22;5074;53.720;10.014;2022-08-19T11:27:04;21.20;99.90
10070;DHT22;5074;53.720;10.014;2022-08-19T11:29:36;21.30;99.90
10070;DHT22;5074;53.720;10.014;2022-08-19T11:32:07;21.40;99.90
10070;DHT22;5074;53.720;10.014;2022-08-19T11:34:37;21.50;99.90
10070;DHT22;5074;53.720;10.014;2022-08-19T11:37:07;21.70;99.90
10070;DHT22;5074;53.720;10.014;2022-08-19T11:39:35;21.90;99.90
10070;DHT22;5074;53.720;10.014;2022-08-19T11:42:05;21.90;99.90
10070;DHT22;5074;53.720;10.014;2022-08-19T11:44:48;21.90;99.90
10070;DHT22;5074;53.720;10.014;2022-08-19T11:47:17;21.90;99.90
10070;DHT22;5074;53.720;10.014;2022-08-19T11:49:45;21.90;99.90
10070;DHT22;5074;53.720;10.014;2022-08-19T11:52:15;21.80;99.90
10070;DHT22;5074;53.720;10.014;2022-08-19T11:54:43;21.70;99.90
10070;DHT22;5074;53.720;10.014;2022-08-19T11:57:11;21.60;99.90
10070;DHT22;5074;53.720;10.014;2022-08-19T11:59:41;21.40;99.90
10070;DHT22;5074;53.720;10.014;2022-08-19T12:02:09;21.30;99.90
10070;DHT22;5074;53.720;10.014;2022-08-19T12:04:37;21.20;99.90
10070;DHT22;5074;53.720;10.014;2022-08-19T12:07:05;21.10;99.90
10070;DHT22;5074;53.720;10.014;2022-08-19T12:09:35;21.10;99.90
10070;DHT22;5074;53.720;10.014;2022-08-19T12:12:08;21.00;99.90
10070;DHT22;5074;53.720;10.014;2022-08-19T12:14:36;21.10;99.90
10070;DHT22;5074;53.720;10.014;2022-08-19T12:17:05;21.20;99.90
10070;DHT22;5074;53.720;10.014;2022-08-19T12:19:35;21.20;99.90
10070;DHT22;5074;53.720;10.014;2022-08-19T12:22:06;21.30;99.90
10070;DHT22;5074;53.720;10.014;2022-08-19T12:24:35;21.40;99.90
10070;DHT22;5074;53.720;10.014;2022-08-19T12:27:03;21.50;99.90
10070;DHT22;5074;53.720;10.014;2022-08-19T12:29:38;21.30;99.90
10070;DHT22;5074;53.720;10.014;2022-08-19T12:32:06;21.30;99.90
10070;DHT22;5074;53.720;10.014;2022-08-19T12:34:38;21.10;99.90
10070;DHT22;5074;53.720;10.014;2022-08-19T12:37:06;21.10;99.90
10070;DHT22;5074;53.720;10.014;2022-08-19T12:39:36;21.10;99.90
10070;DHT22;5074;53.720;10.014;2022-08-19T12:42:07;21.10;99.90
10070;DHT22;5074;53.720;10.014;2022-08-19T12:44:36;21.30;99.90
10070;DHT22;5074;53.720;10.014;2022-08-19T12:47:08;21.50;99.90
10070;DHT22;5074;53.720;10.014;2022-08-19T12:49:39;21.80;99.90
10070;DHT22;5074;53.720;10.014;2022-08-19T12:52:21;22.30;99.90
10070;DHT22;5074;53.720;10.014;2022-08-19T12:54:52;22.80;99.90
10070;DHT22;5074;53.720;10.014;2022-08-19T12:57:22;23.20;99.90
10070;DHT22;5074;53.720;10.014;2022-08-19T12:59:59;23.40;99.90
10070;DHT22;5074;53.720;10.014;2022-08-19T13:02:30;23.70;99.90
10070;DHT22;5074;53.720;10.014;2022-08-19T13:05:06;23.60;99.90
10070;DHT22;5074;53.720;10.014;2022-08-19T13:07:36;23.60;99.90
10070;DHT22;5074;53.720;10.014;2022-08-19T13:10:08;23.30;99.90
10070;DHT22;5074;53.720;10.014;2022-08-19T13:12:39;23.10;99.90
10070;DHT22;5074;53.720;10.014;2022-08-19T13:15:08;22.80;99.90
10070;DHT22;5074;53.720;10.014;2022-08-19T13:17:37;22.50;99.90
10070;DHT22;5074;53.720;10.014;2022-08-19T13:20:06;22.30;99.90
10070;DHT22;5074;53.720;10.014;2022-08-19T13:22:36;22.20;99.90
10070;DHT22;5074;53.720;10.014;2022-08-19T13:25:05;22.20;99.90
10070;DHT22;5074;53.720;10.014;2022-08-19T13:27:36;22.30;99.90
10070;DHT22;5074;53.720;10.014;2022-08-19T13:30:06;22.20;99.90
10070;DHT22;5074;53.720;10.014;2022-08-19T13:32:53;22.20;99.90
10070;DHT22;5074;53.720;10.014;2022-08-19T13:35:42;22.30;99.90
10070;DHT22;5074;53.720;10.014;2022-08-19T13:38:13;22.40;99.90
10070;DHT22;5074;53.720;10.014;2022-08-19T13:40:44;22.40;99.90
10070;DHT22;5074;53.720;10.014;2022-08-19T13:43:13;22.40;99.90
10070;DHT22;5074;53.720;10.014;2022-08-19T13:45:49;22.40;99.90
10070;DHT22;5074;53.720;10.014;2022-08-19T13:48:19;22.40;99.90
10070;DHT22;5074;53.720;10.014;2022-08-19T13:50:47;22.50;99.90
10070;DHT22;5074;53.720;10.014;2022-08-19T13:53:15;22.50;99.90
10070;DHT22;5074;53.720;10.014;2022-08-19T13:55:46;22.70;99.90
10070;DHT22;5074;53.720;10.014;2022-08-19T13:58:14;22.80;99.90
10070;DHT22;5074;53.720;10.014;2022-08-19T14:00:42;22.80;99.90
10070;DHT22;5074;53.720;10.014;2022-08-19T14:03:12;22.70;99.90
10070;DHT22;5074;53.720;10.014;2022-08-19T14:05:40;22.60;99.90
10070;DHT22;5074;53.720;10.014;2022-08-19T14:08:08;22.50;99.90
10070;DHT22;5074;53.720;10.014;2022-08-19T14:10:38;22.50;99.90
10070;DHT22;5074;53.720;10.014;2022-08-19T14:13:08;22.40;99.90
10070;DHT22;5074;53.720;10.014;2022-08-19T14:15:36;22.30;99.90
10070;DHT22;5074;53.720;10.014;2022-08-19T14:18:05;22.20;99.90
10070;DHT22;5074;53.720;10.014;2022-08-19T14:20:33;22.20;99.90
10070;DHT22;5074;53.720;10.014;2022-08-19T14:23:02;22.10;99.90
10070;DHT22;5074;53.720;10.014;2022-08-19T14:25:32;22.10;99.90
10070;DHT22;5074;53.720;10.014;2022-08-19T14:28:00;22.00;99.90
10070;DHT22;5074;53.720;10.014;2022-08-19T14:30:31;22.10;99.90
10070;DHT22;5074;53.720;10.014;2022-08-19T14:33:01;22.10;99.90
10070;DHT22;5074;53.720;10.014;2022-08-19T14:35:30;22.10;99.90
10070;DHT22;5074;53.720;10.014;2022-08-19T14:38:01;22.10;99.90
10070;DHT22;5074;53.720;10.014;2022-08-19T14:40:30;22.20;99.90
10070;DHT22;5074;53.720;10.014;2022-08-19T14:42:59;22.30;99.90
10070;DHT22;5074;53.720;10.014;2022-08-19T14:45:32;22.30;99.90
10070;DHT22;5074;53.720;10.014;2022-08-19T14:48:03;22.30;99.90
10070;DHT22;5074;53.720;10.014;2022-08-19T14:53:01;22.40;99.90
10070;DHT22;5074;53.720;10.014;2022-08-19T14:55:40;22.50;99.90
10070;DHT22;5074;53.720;10.014;2022-08-19T14:58:09;22.60;99.90
10070;DHT22;5074;53.720;10.014;2022-08-19T15:00:58;22.70;99.90
10070;DHT22;5074;53.720;10.014;2022-08-19T15:03:26;22.80;99.90
10070;DHT22;5074;53.720;10.014;2022-08-19T15:05:56;22.80;99.90
10070;DHT22;5074;53.720;10.014;2022-08-19T15:08:29;22.80;99.90
10070;DHT22;5074;53.720;10.014;2022-08-19T15:11:00;22.80;99.90
10070;DHT22;5074;53.720;10.014;2022-08-19T15:13:29;22.60;99.90
10070;DHT22;5074;53.720;10.014;2022-08-19T15:16:01;22.60;99.90
10070;DHT22;5074;53.720;10.014;2022-08-19T15:18:30;22.60;99.90
10070;DHT22;5074;53.720;10.014;2022-08-19T15:20:59;22.80;99.90
10070;DHT22;5074;53.720;10.014;2022-08-19T15:23:27;23.30;99.90
10070;DHT22;5074;53.720;10.014;2022-08-19T15:25:55;24.40;99.90
10070;DHT22;5074;53.720;10.014;2022-08-19T15:28:24;25.30;99.90
10070;DHT22;5074;53.720;10.014;2022-08-19T15:30:53;26.00;99.90
10070;DHT22;5074;53.720;10.014;2022-08-19T15:33:22;26.00;99.90
10070;DHT22;5074;53.720;10.014;2022-08-19T15:35:51;25.80;99.90
10070;DHT22;5074;53.720;10.014;2022-08-19T15:38:19;25.30;99.90
10070;DHT22;5074;53.720;10.014;2022-08-19T15:40:49;24.80;99.90
10070;DHT22;5074;53.720;10.014;2022-08-19T15:43:18;24.20;99.90
10070;DHT22;5074;53.720;10.014;2022-08-19T15:45:47;23.80;99.90
10070;DHT22;5074;53.720;10.014;2022-08-19T15:48:16;23.60;99.90
10070;DHT22;5074;53.720;10.014;2022-08-19T15:50:45;23.40;99.90
10070;DHT22;5074;53.720;10.014;2022-08-19T15:53:13;23.70;99.90
10070;DHT22;5074;53.720;10.014;2022-08-19T15:55:43;23.90;99.90
10070;DHT22;5074;53.720;10.014;2022-08-19T15:58:13;24.00;99.90